createdAt,value
2022-12-14T00:00:38.460Z,30.03
2022-12-14T00:05:37.178Z,31.55
2022-12-14T00:08:07.072Z,30.47
2022-12-14T00:10:39.070Z,34.30
2022-12-14T00:13:11.309Z,32.17
2022-12-14T00:15:41.797Z,32.73
2022-12-14T00:18:12.101Z,37.00
2022-12-14T00:20:41.579Z,32.57
2022-12-14T00:23:11.727Z,32.23
2022-12-14T00:25:41.249Z,29.97
2022-12-14T00:28:10.744Z,31.60
2022-12-14T00:30:40.253Z,29.67
2022-12-14T00:33:10.406Z,34.07
2022-12-14T00:35:39.876Z,28.27
2022-12-14T00:38:09.381Z,30.53
2022-12-14T00:40:39.328Z,31.00
2022-12-14T00:43:08.836Z,25.70
2022-12-14T00:45:38.297Z,26.97
2022-12-14T00:48:07.887Z,26.90
2022-12-14T00:50:37.356Z,25.90
2022-12-14T00:53:07.007Z,28.30
2022-12-14T00:55:40.970Z,27.63
2022-12-14T00:58:12.691Z,30.98
2022-12-14T01:00:44.255Z,28.77
2022-12-14T01:03:14.430Z,29.00
2022-12-14T01:05:49.452Z,26.27
2022-12-14T01:08:15.395Z,25.00
2022-12-14T01:10:44.860Z,28.07
2022-12-14T01:13:14.668Z,24.75
2022-12-14T01:15:44.302Z,23.60
2022-12-14T01:18:13.890Z,19.17
2022-12-14T01:20:43.352Z,24.60
2022-12-14T01:23:12.937Z,26.73
2022-12-14T01:25:42.407Z,25.47
2022-12-14T01:28:12.205Z,27.93
2022-12-14T01:30:41.717Z,23.77
2022-12-14T01:33:11.263Z,26.67
2022-12-14T01:35:40.821Z,24.47
2022-12-14T01:38:10.628Z,23.27
2022-12-14T01:40:40.162Z,24.40
2022-12-14T01:43:15.723Z,23.67
2022-12-14T01:45:45.415Z,22.93
2022-12-14T01:48:15.561Z,24.63
2022-12-14T01:50:47.269Z,26.30
2022-12-14T01:53:19.909Z,23.57
2022-12-14T01:55:52.407Z,27.20
2022-12-14T01:58:25.256Z,21.75
2022-12-14T02:00:57.724Z,22.03
2022-12-14T02:03:33.575Z,22.73
2022-12-14T02:06:06.243Z,21.40
2022-12-14T02:08:36.645Z,21.13
2022-12-14T02:11:07.454Z,19.98
2022-12-14T02:13:42.509Z,22.65
2022-12-14T02:16:12.392Z,21.25
2022-12-14T02:18:42.054Z,21.40
2022-12-14T02:21:41.660Z,21.47
2022-12-14T02:24:32.287Z,22.03
2022-12-14T02:27:20.015Z,18.73
2022-12-14T02:29:55.456Z,20.97
2022-12-14T02:32:53.690Z,20.33
2022-12-14T02:35:26.484Z,19.27
2022-12-14T02:38:16.992Z,20.03
2022-12-14T02:43:35.923Z,19.27
2022-12-14T02:46:23.115Z,21.00
2022-12-14T02:49:01.947Z,19.97
2022-12-14T02:51:34.499Z,20.43
2022-12-14T02:54:24.386Z,19.67
2022-12-14T02:56:56.942Z,20.03
2022-12-14T02:59:27.714Z,18.37
2022-12-14T03:01:58.126Z,20.57
2022-12-14T03:04:28.012Z,17.57
2022-12-14T03:07:00.589Z,18.83
2022-12-14T03:09:32.526Z,18.27
2022-12-14T03:12:08.128Z,18.07
2022-12-14T03:14:50.424Z,19.20
2022-12-14T03:17:23.280Z,16.07
2022-12-14T03:19:55.786Z,19.23
2022-12-14T03:22:28.627Z,19.57
2022-12-14T03:25:01.134Z,18.37
2022-12-14T03:27:36.375Z,19.90
2022-12-14T03:30:09.265Z,19.30
2022-12-14T03:32:41.799Z,17.77
2022-12-14T03:35:32.057Z,18.23
2022-12-14T03:38:22.745Z,18.07
2022-12-14T03:43:40.300Z,17.12
2022-12-14T03:46:29.523Z,17.40
2022-12-14T03:49:04.638Z,16.60
2022-12-14T03:51:43.138Z,18.60
2022-12-14T03:54:27.693Z,19.07
2022-12-14T03:57:02.915Z,18.70
2022-12-14T03:59:41.368Z,18.50
2022-12-14T04:02:16.594Z,21.37
2022-12-14T04:04:55.010Z,19.50
2022-12-14T04:07:30.347Z,21.95
2022-12-14T04:10:32.225Z,18.43
2022-12-14T04:13:34.534Z,20.40
2022-12-14T04:16:27.662Z,24.20
2022-12-14T04:19:02.239Z,20.37
2022-12-14T04:21:43.358Z,21.00
2022-12-14T04:24:48.734Z,19.63
2022-12-14T04:27:24.425Z,19.73
2022-12-14T04:29:59.025Z,18.94
2022-12-14T04:32:46.852Z,21.70
2022-12-14T04:35:25.550Z,19.50
2022-12-14T04:38:01.056Z,20.77
2022-12-14T04:40:36.194Z,22.43
2022-12-14T04:43:09.347Z,22.70
2022-12-14T04:45:48.287Z,20.47
2022-12-14T04:48:20.817Z,18.43
2022-12-14T04:50:56.204Z,23.70
2022-12-14T04:53:29.401Z,22.37
2022-12-14T04:56:11.269Z,21.57
2022-12-14T04:58:41.847Z,22.80
2022-12-14T05:04:14.697Z,23.57
2022-12-14T05:06:53.220Z,22.80
2022-12-14T05:09:28.839Z,21.30
2022-12-14T05:12:10.280Z,23.43
2022-12-14T05:14:48.781Z,24.73
2022-12-14T05:17:19.289Z,25.68
2022-12-14T05:19:50.506Z,23.80
2022-12-14T05:24:48.942Z,23.15
2022-12-14T05:27:18.724Z,26.27
2022-12-14T05:29:48.236Z,25.67
2022-12-14T05:32:17.816Z,28.30
2022-12-14T05:34:47.476Z,28.67
2022-12-14T05:37:18.550Z,26.07
2022-12-14T05:39:48.643Z,25.70
2022-12-14T05:42:18.521Z,25.53
2022-12-14T05:44:48.037Z,26.47
2022-12-14T05:47:17.499Z,26.23
2022-12-14T05:49:49.482Z,26.90
2022-12-14T05:52:18.684Z,24.00
2022-12-14T05:54:48.679Z,25.17
2022-12-14T05:57:18.264Z,28.73
2022-12-14T05:59:48.166Z,24.20
2022-12-14T06:02:17.777Z,27.30
2022-12-14T06:04:47.417Z,22.10
2022-12-14T06:07:16.924Z,27.43
2022-12-14T06:09:46.510Z,27.30
2022-12-14T06:12:16.277Z,28.10
2022-12-14T06:14:45.953Z,28.97
2022-12-14T06:17:15.630Z,28.87
2022-12-14T06:19:49.748Z,29.13
2022-12-14T06:22:16.400Z,27.03
2022-12-14T06:24:45.905Z,28.27
2022-12-14T06:27:15.466Z,31.47
2022-12-14T06:29:45.023Z,28.77
2022-12-14T06:32:14.818Z,26.90
2022-12-14T06:34:46.827Z,29.50
2022-12-14T06:37:16.472Z,27.50
2022-12-14T06:39:49.718Z,31.07
2022-12-14T06:42:17.885Z,27.45
2022-12-14T06:44:47.350Z,27.83
2022-12-14T06:47:16.934Z,31.30
2022-12-14T06:49:46.390Z,30.60
2022-12-14T06:52:21.992Z,30.85
2022-12-14T06:54:49.567Z,33.80
2022-12-14T06:57:19.068Z,32.45
2022-12-14T06:59:48.550Z,29.57
2022-12-14T07:02:18.414Z,30.57
2022-12-14T07:04:48.051Z,29.33
2022-12-14T07:07:17.575Z,29.43
2022-12-14T07:09:47.051Z,33.00
2022-12-14T07:12:16.851Z,33.83
2022-12-14T07:14:46.573Z,33.10
2022-12-14T07:17:16.443Z,33.08
2022-12-14T07:19:46.324Z,35.33
2022-12-14T07:22:17.803Z,35.97
2022-12-14T07:24:47.456Z,35.60
2022-12-14T07:27:19.007Z,34.40
2022-12-14T07:29:48.599Z,35.93
2022-12-14T07:32:18.351Z,31.90
2022-12-14T07:34:48.135Z,33.17
2022-12-14T07:37:17.730Z,36.27
2022-12-14T07:39:47.174Z,36.43
2022-12-14T07:42:16.921Z,34.40
2022-12-14T07:44:48.479Z,33.03
2022-12-14T07:47:18.329Z,25.68
2022-12-14T07:49:47.856Z,34.93
2022-12-14T07:52:17.714Z,34.03
2022-12-14T07:54:47.178Z,38.70
2022-12-14T07:57:17.113Z,34.83
2022-12-14T07:59:46.578Z,35.43
2022-12-14T08:02:16.651Z,33.95
2022-12-14T08:04:46.403Z,31.93
2022-12-14T08:07:15.923Z,30.93
2022-12-14T08:09:45.470Z,32.43
2022-12-14T08:12:14.997Z,29.87
2022-12-14T08:14:44.462Z,35.83
2022-12-14T08:17:14.278Z,35.53
2022-12-14T08:19:43.900Z,24.57
2022-12-14T08:22:13.662Z,32.90
2022-12-14T08:24:43.128Z,32.83
2022-12-14T08:27:14.625Z,29.65
2022-12-14T08:29:44.339Z,33.03
2022-12-14T08:32:14.135Z,30.08
2022-12-14T08:34:43.835Z,29.60
2022-12-14T08:37:13.645Z,32.47
2022-12-14T08:39:43.115Z,30.63
2022-12-14T08:42:14.269Z,28.43
2022-12-14T08:44:43.797Z,29.33
2022-12-14T08:47:13.254Z,30.63
2022-12-14T08:49:42.768Z,31.93
2022-12-14T08:52:12.605Z,31.23
2022-12-14T08:54:42.225Z,29.17
2022-12-14T08:57:11.996Z,27.95
2022-12-14T09:02:14.482Z,30.45
2022-12-14T09:04:44.035Z,28.03
2022-12-14T09:07:13.733Z,30.50
2022-12-14T09:09:43.357Z,28.93
2022-12-14T09:12:13.036Z,30.07
2022-12-14T09:14:44.222Z,28.37
2022-12-14T09:19:42.965Z,28.65
2022-12-14T09:22:14.143Z,30.35
2022-12-14T09:24:43.683Z,28.43
2022-12-14T09:27:13.297Z,28.33
2022-12-14T09:29:43.469Z,30.73
2022-12-14T09:32:12.968Z,25.73
2022-12-14T09:34:42.441Z,28.97
2022-12-14T09:37:12.616Z,26.73
2022-12-14T09:39:42.071Z,27.17
2022-12-14T09:42:20.616Z,29.93
2022-12-14T09:45:07.982Z,28.47
2022-12-14T09:47:41.805Z,27.60
2022-12-14T09:50:17.376Z,26.72
2022-12-14T09:52:51.118Z,26.27
2022-12-14T09:55:36.082Z,27.02
2022-12-14T09:58:24.618Z,23.40
2022-12-14T10:01:20.811Z,25.10
2022-12-14T10:04:02.232Z,26.10
2022-12-14T10:06:54.766Z,27.17
2022-12-14T10:09:36.266Z,25.40
2022-12-14T10:12:15.263Z,24.77
2022-12-14T10:14:50.474Z,24.27
2022-12-14T10:17:39.430Z,25.10
2022-12-14T10:20:12.399Z,23.37
2022-12-14T10:22:45.069Z,22.60
2022-12-14T10:25:26.846Z,25.60
2022-12-14T10:28:12.523Z,24.13
2022-12-14T10:30:37.005Z,28.07
2022-12-14T10:33:24.724Z,24.63
2022-12-14T10:35:56.050Z,25.87
2022-12-14T10:38:37.380Z,23.67
2022-12-14T10:41:35.301Z,24.40
2022-12-14T10:44:29.884Z,23.35
2022-12-14T10:47:15.314Z,25.00
2022-12-14T10:49:56.249Z,23.70
2022-12-14T10:52:30.004Z,23.67
2022-12-14T10:55:05.702Z,22.57
2022-12-14T10:57:35.160Z,25.63
2022-12-14T11:00:10.343Z,26.23
2022-12-14T11:02:43.196Z,25.87
2022-12-14T11:05:19.062Z,22.27
2022-12-14T11:07:49.788Z,24.57
2022-12-14T11:10:24.994Z,26.53
2022-12-14T11:12:57.495Z,22.40
2022-12-14T11:15:33.284Z,23.77
2022-12-14T11:18:09.131Z,25.37
2022-12-14T11:20:38.888Z,23.40
2022-12-14T11:23:23.416Z,24.87
2022-12-14T11:26:01.177Z,24.40
2022-12-14T11:28:39.703Z,27.03
2022-12-14T11:31:16.137Z,27.10
2022-12-14T11:33:49.886Z,28.90
2022-12-14T11:36:37.638Z,25.35
2022-12-14T11:39:15.662Z,29.37
2022-12-14T11:41:48.495Z,24.53
2022-12-14T11:44:22.160Z,26.85
2022-12-14T11:46:57.492Z,28.77
2022-12-14T11:49:36.204Z,23.90
2022-12-14T11:52:18.501Z,24.68
2022-12-14T11:54:51.021Z,26.43
2022-12-14T11:57:36.063Z,25.55
2022-12-14T12:00:11.008Z,23.57
2022-12-14T12:02:51.409Z,24.63
2022-12-14T12:05:23.611Z,24.77
2022-12-14T12:07:59.302Z,22.47
2022-12-14T12:10:45.058Z,26.70
2022-12-14T12:13:40.231Z,23.95
2022-12-14T12:16:13.665Z,21.03
2022-12-14T12:19:11.436Z,25.07
2022-12-14T12:21:40.264Z,25.93
2022-12-14T12:24:24.881Z,24.17
2022-12-14T12:27:03.467Z,21.80
2022-12-14T12:29:44.591Z,21.93
2022-12-14T12:32:26.505Z,21.23
2022-12-14T12:35:11.930Z,20.60
2022-12-14T12:40:17.252Z,20.97
2022-12-14T12:42:52.561Z,20.03
2022-12-14T12:45:41.854Z,19.43
2022-12-14T12:48:33.306Z,18.23
2022-12-14T12:51:08.799Z,18.47
2022-12-14T12:53:41.335Z,18.57
2022-12-14T12:56:16.975Z,18.77
2022-12-14T12:58:52.678Z,21.17
2022-12-14T13:01:38.160Z,17.30
2022-12-14T13:04:10.988Z,17.33
2022-12-14T13:06:58.493Z,16.80
2022-12-14T13:09:45.899Z,17.90
2022-12-14T13:12:34.705Z,18.37
2022-12-14T13:15:07.454Z,16.67
2022-12-14T13:17:42.863Z,16.80
2022-12-14T13:20:28.025Z,13.80
2022-12-14T13:23:05.750Z,16.73
2022-12-14T13:25:49.213Z,15.20
2022-12-14T13:28:33.660Z,16.97
2022-12-14T13:31:18.161Z,16.17
2022-12-14T13:33:56.763Z,15.17
2022-12-14T13:36:51.083Z,14.73
2022-12-14T13:39:42.757Z,16.03
2022-12-14T13:42:18.259Z,16.70
2022-12-14T13:44:53.374Z,15.37
2022-12-14T13:47:26.160Z,14.07
2022-12-14T13:50:34.207Z,15.17
2022-12-14T13:52:41.697Z,15.77
2022-12-14T13:55:26.474Z,17.40
2022-12-14T13:58:11.022Z,16.07
2022-12-14T14:00:55.440Z,16.17
2022-12-14T14:03:40.232Z,14.53
2022-12-14T14:06:38.087Z,15.10
2022-12-14T14:09:36.559Z,15.77
2022-12-14T14:12:09.637Z,16.10
2022-12-14T14:14:58.703Z,14.43
2022-12-14T14:17:43.367Z,15.47
2022-12-14T14:20:43.216Z,13.57
2022-12-14T14:23:18.554Z,14.27
2022-12-14T14:25:56.265Z,16.13
2022-12-14T14:28:29.016Z,16.03
2022-12-14T14:30:59.857Z,13.47
2022-12-14T14:33:46.190Z,14.07
2022-12-14T14:36:21.417Z,16.15
2022-12-14T14:38:51.648Z,15.10
2022-12-14T14:41:27.441Z,13.50
2022-12-14T14:44:00.232Z,14.20
2022-12-14T14:46:39.210Z,14.27
2022-12-14T14:49:23.576Z,16.83
2022-12-14T14:51:53.298Z,15.83
2022-12-14T14:56:59.120Z,15.63
2022-12-14T14:59:43.750Z,14.70
2022-12-14T15:02:27.016Z,14.90
2022-12-14T15:04:57.478Z,16.30
2022-12-14T15:07:30.104Z,16.97
2022-12-14T15:10:22.880Z,17.90
2022-12-14T15:12:58.521Z,18.90
2022-12-14T15:15:46.171Z,22.50
2022-12-14T15:18:31.700Z,19.00
2022-12-14T15:21:10.077Z,21.10
2022-12-14T15:23:51.680Z,19.77
2022-12-14T15:26:24.338Z,19.40
2022-12-14T15:28:57.963Z,19.60
2022-12-14T15:31:33.868Z,18.43
2022-12-14T15:34:04.549Z,19.07
2022-12-14T15:39:06.071Z,18.25
2022-12-14T15:41:35.998Z,17.10
2022-12-14T15:44:09.116Z,22.93
2022-12-14T15:46:40.879Z,20.57
2022-12-14T15:49:13.764Z,23.20
2022-12-14T15:51:45.333Z,19.97
2022-12-14T15:54:20.765Z,17.60
2022-12-14T15:56:52.766Z,22.87
2022-12-14T15:59:31.085Z,20.67
2022-12-14T16:02:24.892Z,19.93
2022-12-14T16:04:56.632Z,18.90
2022-12-14T16:07:29.222Z,19.30
2022-12-14T16:10:00.757Z,21.33
2022-12-14T16:12:40.907Z,21.73
2022-12-14T16:15:10.279Z,17.63
2022-12-14T16:17:40.785Z,22.10
2022-12-14T16:22:41.653Z,20.20
2022-12-14T16:25:16.114Z,23.22
2022-12-14T16:27:49.805Z,24.07
2022-12-14T16:30:25.502Z,22.53
2022-12-14T16:33:07.305Z,20.37
2022-12-14T16:35:38.703Z,18.73
2022-12-14T16:38:14.871Z,18.83
2022-12-14T16:40:50.254Z,21.40
2022-12-14T16:43:35.299Z,21.80
2022-12-14T16:46:10.807Z,20.85
2022-12-14T16:48:43.261Z,19.27
2022-12-14T16:51:38.409Z,21.62
2022-12-14T16:53:59.799Z,20.67
2022-12-14T16:56:35.318Z,19.57
2022-12-14T16:59:07.907Z,20.93
2022-12-14T17:01:45.626Z,19.83
2022-12-14T17:04:18.373Z,20.17
2022-12-14T17:06:51.127Z,19.97
2022-12-14T17:09:26.268Z,21.30
2022-12-14T17:11:58.801Z,19.10
2022-12-14T17:14:29.263Z,21.27
2022-12-14T17:17:01.930Z,20.77
2022-12-14T17:19:37.744Z,21.30
2022-12-14T17:22:10.249Z,18.60
2022-12-14T17:24:40.181Z,19.27
2022-12-14T17:27:11.484Z,21.90
2022-12-14T17:29:41.295Z,21.73
2022-12-14T17:32:14.183Z,20.67
2022-12-14T17:34:45.416Z,20.63
2022-12-14T17:37:17.889Z,21.43
2022-12-14T17:39:47.818Z,21.13
2022-12-14T17:42:20.394Z,21.47
2022-12-14T17:44:55.805Z,21.17
2022-12-14T17:47:26.046Z,20.82
2022-12-14T17:49:55.648Z,22.03
2022-12-14T17:52:31.729Z,23.57
2022-12-14T17:55:01.370Z,26.00
2022-12-14T17:57:30.905Z,23.30
2022-12-14T18:00:18.216Z,22.97
2022-12-14T18:02:48.097Z,23.97
2022-12-14T18:05:22.522Z,23.77
2022-12-14T18:07:52.009Z,23.67
2022-12-14T18:10:22.507Z,25.93
2022-12-14T18:12:52.633Z,26.20
2022-12-14T18:15:31.025Z,24.10
2022-12-14T18:18:00.779Z,27.27
2022-12-14T18:20:30.356Z,29.97
2022-12-14T18:22:59.961Z,27.73
2022-12-14T18:25:35.229Z,24.17
2022-12-14T18:28:08.025Z,25.80
2022-12-14T18:30:43.125Z,27.10
2022-12-14T18:33:18.288Z,25.60
2022-12-14T18:35:49.876Z,24.23
2022-12-14T18:38:20.179Z,23.33
2022-12-14T18:40:51.647Z,25.73
2022-12-14T18:43:24.106Z,27.27
2022-12-14T18:45:55.613Z,27.43
2022-12-14T18:50:56.045Z,23.90
2022-12-14T18:53:27.068Z,25.63
2022-12-14T18:56:00.247Z,29.33
2022-12-14T18:58:30.431Z,25.97
2022-12-14T19:01:03.080Z,25.37
2022-12-14T19:03:33.543Z,27.00
2022-12-14T19:08:46.501Z,27.57
2022-12-14T19:11:35.157Z,27.67
2022-12-14T19:14:04.628Z,27.80
2022-12-14T19:16:34.450Z,32.20
2022-12-14T19:19:04.001Z,29.97
2022-12-14T19:21:33.565Z,30.10
2022-12-14T19:24:03.041Z,29.93
2022-12-14T19:26:32.616Z,29.43
2022-12-14T19:29:02.117Z,30.70
2022-12-14T19:31:31.816Z,31.77
2022-12-14T19:34:01.813Z,32.47
2022-12-14T19:36:31.346Z,31.03
2022-12-14T19:39:00.835Z,29.63
2022-12-14T19:41:30.394Z,31.60
2022-12-14T19:44:00.793Z,32.33
2022-12-14T19:46:31.022Z,33.88
2022-12-14T19:49:01.101Z,33.63
2022-12-14T19:51:30.608Z,31.70
2022-12-14T19:54:01.816Z,30.23
2022-12-14T19:56:31.366Z,30.37
2022-12-14T19:59:03.052Z,31.03
2022-12-14T20:01:34.403Z,31.67
2022-12-14T20:04:07.217Z,29.10
2022-12-14T20:06:37.016Z,28.40
2022-12-14T20:09:07.823Z,27.90
2022-12-14T20:11:38.783Z,27.20
2022-12-14T20:14:09.661Z,27.87
2022-12-14T20:16:40.253Z,23.18
2022-12-14T20:19:12.036Z,28.38
2022-12-14T20:21:41.834Z,28.37
2022-12-14T20:24:12.331Z,32.37
2022-12-14T20:26:42.577Z,31.12
2022-12-14T20:29:12.690Z,29.67
2022-12-14T20:31:42.269Z,29.23
2022-12-14T20:34:11.937Z,28.47
2022-12-14T20:36:41.512Z,28.37
2022-12-14T20:39:11.354Z,29.87
2022-12-14T20:41:41.072Z,26.57
2022-12-14T20:44:12.489Z,26.70
2022-12-14T20:49:18.327Z,28.10
2022-12-14T20:51:49.457Z,28.00
2022-12-14T20:54:22.203Z,29.57
2022-12-14T20:56:51.707Z,29.83
2022-12-14T20:59:21.409Z,26.73
2022-12-14T21:01:55.856Z,26.47
2022-12-14T21:04:22.420Z,27.05
2022-12-14T21:06:52.571Z,28.57
2022-12-14T21:09:22.234Z,20.27
2022-12-14T21:12:10.249Z,28.70
2022-12-14T21:14:43.504Z,28.30
2022-12-14T21:17:15.278Z,28.00
2022-12-14T21:19:44.843Z,26.70
2022-12-14T21:22:17.386Z,28.40
2022-12-14T21:25:04.816Z,30.80
2022-12-14T21:27:24.110Z,28.37
2022-12-14T21:29:54.792Z,26.97
2022-12-14T21:32:24.660Z,26.85
2022-12-14T21:34:54.390Z,28.07
2022-12-14T21:37:24.587Z,29.63
2022-12-14T21:39:55.583Z,29.40
2022-12-14T21:42:26.070Z,28.37
2022-12-14T21:44:56.099Z,27.30
2022-12-14T21:47:28.359Z,26.17
2022-12-14T21:49:58.216Z,28.50
2022-12-14T21:52:28.819Z,27.43
2022-12-14T21:54:59.724Z,25.95
2022-12-14T21:57:49.498Z,25.95
2022-12-14T22:00:19.838Z,29.90
2022-12-14T22:02:49.887Z,27.20
2022-12-14T22:05:19.495Z,28.43
2022-12-14T22:07:48.959Z,26.90
2022-12-14T22:10:24.597Z,25.75
2022-12-14T22:12:50.314Z,26.60
2022-12-14T22:15:20.184Z,25.17
2022-12-14T22:17:51.749Z,29.03
2022-12-14T22:20:21.571Z,28.98
2022-12-14T22:22:51.615Z,25.63
2022-12-14T22:25:21.115Z,26.47
2022-12-14T22:27:50.655Z,27.63
2022-12-14T22:30:21.115Z,31.57
2022-12-14T22:32:50.869Z,28.97
2022-12-14T22:35:20.673Z,27.25
2022-12-14T22:37:50.392Z,25.43
2022-12-14T22:40:20.208Z,26.48
2022-12-14T22:42:49.966Z,26.80
2022-12-14T22:45:19.727Z,26.73
2022-12-14T22:47:49.234Z,29.97
2022-12-14T22:50:19.025Z,28.93
2022-12-14T22:52:49.874Z,29.83
2022-12-14T22:55:19.785Z,26.90
2022-12-14T22:57:49.314Z,28.37
2022-12-14T23:00:18.969Z,28.93
2022-12-14T23:02:49.847Z,28.87
2022-12-14T23:05:19.828Z,29.43
2022-12-14T23:07:49.578Z,28.63
2022-12-14T23:10:37.171Z,27.13
2022-12-14T23:13:24.461Z,27.73
2022-12-14T23:16:11.286Z,31.73
2022-12-14T23:18:58.647Z,29.33
2022-12-14T23:21:46.042Z,28.40
2022-12-14T23:24:33.152Z,30.63
2022-12-14T23:27:20.336Z,29.33
2022-12-14T23:30:07.276Z,28.23
2022-12-14T23:32:54.540Z,28.40
2022-12-14T23:35:42.224Z,32.70
2022-12-14T23:38:29.808Z,30.85
2022-12-14T23:41:20.297Z,32.90
2022-12-14T23:44:07.481Z,35.33
2022-12-14T23:46:54.898Z,30.93
2022-12-14T23:49:42.225Z,33.18
2022-12-14T23:52:29.527Z,32.07
2022-12-14T23:55:16.616Z,34.57
2022-12-14T23:58:03.555Z,34.83
